sensor_id;sensor_type;location;lat;lon;timestamp;pressure;altitude;pressure_sealevel;temperature;humidity
13420;BME280;6781;58.440;15.470;2023-05-20T00:00:52;102302.03;;;8.96;100.00
13420;BME280;6781;58.440;15.470;2023-05-20T00:03:19;102289.84;;;8.98;100.00
13420;BME280;6781;58.440;15.470;2023-05-20T00:05:49;102269.69;;;8.86;100.00
13420;BME280;6781;58.440;15.470;2023-05-20T00:08:17;102303.56;;;9.00;100.00
13420;BME280;6781;58.440;15.470;2023-05-20T00:10:45;102447.16;;;9.89;100.00
13420;BME280;6781;58.440;15.470;2023-05-20T00:13:12;102359.13;;;9.31;100.00
13420;BME280;6781;58.440;15.470;2023-05-20T00:15:39;102281.69;;;8.68;100.00
13420;BME280;6781;58.440;15.470;2023-05-20T00:18:06;102213.53;;;8.30;100.00
13420;BME280;6781;58.440;15.470;2023-05-20T00:20:33;102401.00;;;9.40;100.00
13420;BME280;6781;58.440;15.470;2023-05-20T00:23:00;102276.59;;;8.67;100.00
13420;BME280;6781;58.440;15.470;2023-05-20T00:25:27;102277.94;;;8.57;100.00
13420;BME280;6781;58.440;15.470;2023-05-20T00:27:57;102336.22;;;9.03;100.00
13420;BME280;6781;58.440;15.470;2023-05-20T00:30:24;102418.03;;;9.46;100.00
13420;BME280;6781;58.440;15.470;2023-05-20T00:32:51;102321.56;;;8.83;100.00
13420;BME280;6781;58.440;15.470;2023-05-20T00:35:18;102445.75;;;9.63;100.00
13420;BME280;6781;58.440;15.470;2023-05-20T00:37:45;102361.03;;;8.88;100.00
13420;BME280;6781;58.440;15.470;2023-05-20T00:40:12;102452.59;;;9.45;100.00
13420;BME280;6781;58.440;15.470;2023-05-20T00:42:40;102451.81;;;9.43;100.00
13420;BME280;6781;58.440;15.470;2023-05-20T00:45:09;102353.59;;;8.80;100.00
13420;BME280;6781;58.440;15.470;2023-05-20T00:47:37;102453.63;;;9.41;100.00
13420;BME280;6781;58.440;15.470;2023-05-20T00:50:08;102306.50;;;8.33;100.00
13420;BME280;6781;58.440;15.470;2023-05-20T00:52:39;102475.34;;;8.98;100.00
13420;BME280;6781;58.440;15.470;2023-05-20T00:55:09;102477.09;;;8.97;100.00
13420;BME280;6781;58.440;15.470;2023-05-20T00:57:36;102446.66;;;8.82;100.00
13420;BME280;6781;58.440;15.470;2023-05-20T01:00:06;102427.41;;;8.89;100.00
13420;BME280;6781;58.440;15.470;2023-05-20T01:02:37;102191.56;;;7.37;100.00
13420;BME280;6781;58.440;15.470;2023-05-20T01:05:05;102451.91;;;9.01;100.00
13420;BME280;6781;58.440;15.470;2023-05-20T01:07:35;102278.25;;;7.87;100.00
13420;BME280;6781;58.440;15.470;2023-05-20T01:10:13;102177.09;;;7.11;100.00
13420;BME280;6781;58.440;15.470;2023-05-20T01:12:44;102211.78;;;7.48;100.00
13420;BME280;6781;58.440;15.470;2023-05-20T01:15:14;102442.94;;;8.89;100.00
13420;BME280;6781;58.440;15.470;2023-05-20T01:17:46;102453.91;;;8.94;100.00
13420;BME280;6781;58.440;15.470;2023-05-20T01:20:16;102428.03;;;8.54;100.00
13420;BME280;6781;58.440;15.470;2023-05-20T01:22:48;102459.47;;;8.85;100.00
13420;BME280;6781;58.440;15.470;2023-05-20T01:25:15;102461.41;;;8.80;100.00
13420;BME280;6781;58.440;15.470;2023-05-20T01:27:42;102431.53;;;8.73;100.00
13420;BME280;6781;58.440;15.470;2023-05-20T01:30:10;102401.28;;;8.55;100.00
13420;BME280;6781;58.440;15.470;2023-05-20T01:32:41;102443.38;;;8.58;100.00
13420;BME280;6781;58.440;15.470;2023-05-20T01:35:09;102345.81;;;7.98;100.00
13420;BME280;6781;58.440;15.470;2023-05-20T01:37:38;102394.47;;;8.30;100.00
13420;BME280;6781;58.440;15.470;2023-05-20T01:40:08;102435.63;;;8.58;100.00
13420;BME280;6781;58.440;15.470;2023-05-20T01:42:38;102303.66;;;7.75;100.00
13420;BME280;6781;58.440;15.470;2023-05-20T01:45:07;102373.81;;;8.30;100.00
13420;BME280;6781;58.440;15.470;2023-05-20T01:47:34;102298.91;;;7.87;100.00
13420;BME280;6781;58.440;15.470;2023-05-20T01:50:01;102452.22;;;8.73;100.00
13420;BME280;6781;58.440;15.470;2023-05-20T01:52:29;102475.19;;;8.60;100.00
13420;BME280;6781;58.440;15.470;2023-05-20T01:54:56;102348.94;;;7.84;100.00
13420;BME280;6781;58.440;15.470;2023-05-20T01:57:24;102439.91;;;8.37;100.00
13420;BME280;6781;58.440;15.470;2023-05-20T01:59:51;102306.34;;;7.50;100.00
13420;BME280;6781;58.440;15.470;2023-05-20T02:02:18;102319.88;;;7.57;100.00
13420;BME280;6781;58.440;15.470;2023-05-20T02:07:28;102462.56;;;8.53;100.00
13420;BME280;6781;58.440;15.470;2023-05-20T02:09:55;102314.47;;;7.63;100.00
13420;BME280;6781;58.440;15.470;2023-05-20T02:12:23;102336.56;;;7.70;100.00
13420;BME280;6781;58.440;15.470;2023-05-20T02:14:50;102485.06;;;8.51;100.00
13420;BME280;6781;58.440;15.470;2023-05-20T02:17:17;102501.50;;;8.26;100.00
13420;BME280;6781;58.440;15.470;2023-05-20T02:19:44;102491.03;;;8.29;100.00
13420;BME280;6781;58.440;15.470;2023-05-20T02:22:12;102481.34;;;8.36;100.00
13420;BME280;6781;58.440;15.470;2023-05-20T02:24:39;102490.03;;;8.33;100.00
13420;BME280;6781;58.440;15.470;2023-05-20T02:27:07;102381.13;;;7.75;100.00
13420;BME280;6781;58.440;15.470;2023-05-20T02:29:35;102489.03;;;8.37;100.00
13420;BME280;6781;58.440;15.470;2023-05-20T02:32:03;102436.69;;;8.09;100.00
13420;BME280;6781;58.440;15.470;2023-05-20T02:34:31;102385.28;;;7.79;100.00
13420;BME280;6781;58.440;15.470;2023-05-20T02:36:58;102478.69;;;8.37;100.00
13420;BME280;6781;58.440;15.470;2023-05-20T02:39:25;102412.97;;;7.76;100.00
13420;BME280;6781;58.440;15.470;2023-05-20T02:41:53;102491.03;;;8.29;100.00
13420;BME280;6781;58.440;15.470;2023-05-20T02:44:20;102457.94;;;7.94;100.00
13420;BME280;6781;58.440;15.470;2023-05-20T02:46:49;102490.97;;;8.31;100.00
13420;BME280;6781;58.440;15.470;2023-05-20T02:49:15;102470.34;;;8.07;100.00
13420;BME280;6781;58.440;15.470;2023-05-20T02:51:42;102491.00;;;8.07;100.00
13420;BME280;6781;58.440;15.470;2023-05-20T02:54:09;102500.28;;;8.13;100.00
13420;BME280;6781;58.440;15.470;2023-05-20T02:56:36;102392.84;;;7.39;100.00
13420;BME280;6781;58.440;15.470;2023-05-20T02:59:04;102506.28;;;8.13;100.00
13420;BME280;6781;58.440;15.470;2023-05-20T03:01:31;102499.97;;;8.21;100.00
13420;BME280;6781;58.440;15.470;2023-05-20T03:04:01;102508.34;;;8.27;100.00
13420;BME280;6781;58.440;15.470;2023-05-20T03:06:32;102373.69;;;7.44;100.00
13420;BME280;6781;58.440;15.470;2023-05-20T03:08:59;102372.97;;;7.17;100.00
13420;BME280;6781;58.440;15.470;2023-05-20T03:11:26;102401.47;;;7.38;100.00
13420;BME280;6781;58.440;15.470;2023-05-20T03:13:53;102509.81;;;8.34;100.00
13420;BME280;6781;58.440;15.470;2023-05-20T03:16:20;102523.19;;;8.45;100.00
13420;BME280;6781;58.440;15.470;2023-05-20T03:18:47;102540.94;;;8.55;100.00
13420;BME280;6781;58.440;15.470;2023-05-20T03:21:15;102527.63;;;8.64;100.00
13420;BME280;6781;58.440;15.470;2023-05-20T03:23:42;102507.97;;;8.60;100.00
13420;BME280;6781;58.440;15.470;2023-05-20T03:26:10;102261.34;;;7.12;100.00
13420;BME280;6781;58.440;15.470;2023-05-20T03:28:37;102456.44;;;8.33;100.00
13420;BME280;6781;58.440;15.470;2023-05-20T03:31:04;102509.31;;;8.68;100.00
13420;BME280;6781;58.440;15.470;2023-05-20T03:33:33;102442.28;;;8.20;100.00
13420;BME280;6781;58.440;15.470;2023-05-20T03:36:00;102435.13;;;8.05;100.00
13420;BME280;6781;58.440;15.470;2023-05-20T03:38:29;102475.88;;;8.20;100.00
13420;BME280;6781;58.440;15.470;2023-05-20T03:40:56;102520.78;;;8.63;100.00
13420;BME280;6781;58.440;15.470;2023-05-20T03:43:23;102527.56;;;8.65;100.00
13420;BME280;6781;58.440;15.470;2023-05-20T03:45:51;102477.69;;;8.18;100.00
13420;BME280;6781;58.440;15.470;2023-05-20T03:48:18;102516.31;;;8.44;100.00
13420;BME280;6781;58.440;15.470;2023-05-20T03:50:45;102509.19;;;8.28;100.00
13420;BME280;6781;58.440;15.470;2023-05-20T03:53:12;102417.53;;;7.69;100.00
13420;BME280;6781;58.440;15.470;2023-05-20T03:55:41;102497.28;;;8.24;100.00
13420;BME280;6781;58.440;15.470;2023-05-20T03:58:08;102539.66;;;8.43;100.00
13420;BME280;6781;58.440;15.470;2023-05-20T04:00:35;102490.94;;;8.09;100.00
13420;BME280;6781;58.440;15.470;2023-05-20T04:03:02;102427.25;;;7.63;100.00
13420;BME280;6781;58.440;15.470;2023-05-20T04:05:30;102543.88;;;8.45;100.00
13420;BME280;6781;58.440;15.470;2023-05-20T04:07:57;102503.28;;;8.24;100.00
13420;BME280;6781;58.440;15.470;2023-05-20T04:10:37;102482.00;;;8.18;100.00
13420;BME280;6781;58.440;15.470;2023-05-20T04:13:09;102431.50;;;7.87;100.00
13420;BME280;6781;58.440;15.470;2023-05-20T04:15:36;102537.16;;;8.63;100.00
13420;BME280;6781;58.440;15.470;2023-05-20T04:18:06;102238.16;;;6.89;100.00
13420;BME280;6781;58.440;15.470;2023-05-20T04:20:33;102416.47;;;7.97;100.00
13420;BME280;6781;58.440;15.470;2023-05-20T04:23:00;102389.78;;;7.74;100.00
13420;BME280;6781;58.440;15.470;2023-05-20T04:25:27;102372.13;;;7.86;100.00
13420;BME280;6781;58.440;15.470;2023-05-20T04:27:54;102466.31;;;8.45;100.00
13420;BME280;6781;58.440;15.470;2023-05-20T04:30:25;102519.91;;;8.84;100.00
13420;BME280;6781;58.440;15.470;2023-05-20T04:32:53;102520.25;;;8.75;100.00
13420;BME280;6781;58.440;15.470;2023-05-20T04:35:20;102316.13;;;7.42;100.00
13420;BME280;6781;58.440;15.470;2023-05-20T04:37:50;102499.06;;;8.45;100.00
13420;BME280;6781;58.440;15.470;2023-05-20T04:40:19;102473.41;;;8.40;100.00
13420;BME280;6781;58.440;15.470;2023-05-20T04:42:47;102424.25;;;8.19;100.00
13420;BME280;6781;58.440;15.470;2023-05-20T04:45:14;102372.25;;;7.82;100.00
13420;BME280;6781;58.440;15.470;2023-05-20T04:47:43;102538.00;;;8.84;100.00
13420;BME280;6781;58.440;15.470;2023-05-20T04:50:10;102543.31;;;8.81;100.00
13420;BME280;6781;58.440;15.470;2023-05-20T04:52:37;102400.00;;;7.77;100.00
13420;BME280;6781;58.440;15.470;2023-05-20T04:55:07;102518.00;;;8.45;100.00
13420;BME280;6781;58.440;15.470;2023-05-20T04:57:38;102277.44;;;7.19;100.00
13420;BME280;6781;58.440;15.470;2023-05-20T05:00:10;102511.72;;;8.73;100.00
13420;BME280;6781;58.440;15.470;2023-05-20T05:02:37;102543.34;;;9.01;100.00
13420;BME280;6781;58.440;15.470;2023-05-20T05:05:07;102320.59;;;7.61;100.00
13420;BME280;6781;58.440;15.470;2023-05-20T05:07:34;102578.00;;;8.97;100.00
13420;BME280;6781;58.440;15.470;2023-05-20T05:10:01;102469.75;;;8.23;100.00
13420;BME280;6781;58.440;15.470;2023-05-20T05:12:40;102517.84;;;8.70;100.00
13420;BME280;6781;58.440;15.470;2023-05-20T05:15:20;102559.34;;;9.11;100.00
13420;BME280;6781;58.440;15.470;2023-05-20T05:17:47;102493.16;;;8.63;100.00
13420;BME280;6781;58.440;15.470;2023-05-20T05:20:34;102269.53;;;7.24;100.00
13420;BME280;6781;58.440;15.470;2023-05-20T05:23:02;102577.06;;;9.00;100.00
13420;BME280;6781;58.440;15.470;2023-05-20T05:25:29;102577.41;;;9.12;100.00
13420;BME280;6781;58.440;15.470;2023-05-20T05:27:56;102597.75;;;9.22;100.00
13420;BME280;6781;58.440;15.470;2023-05-20T05:30:24;102343.13;;;7.34;100.00
13420;BME280;6781;58.440;15.470;2023-05-20T05:32:51;102535.91;;;8.72;100.00
13420;BME280;6781;58.440;15.470;2023-05-20T05:35:18;102634.59;;;9.06;100.00
13420;BME280;6781;58.440;15.470;2023-05-20T05:37:47;102460.38;;;8.20;100.00
13420;BME280;6781;58.440;15.470;2023-05-20T05:40:14;102438.13;;;8.16;100.00
13420;BME280;6781;58.440;15.470;2023-05-20T05:42:41;102504.78;;;8.53;100.00
13420;BME280;6781;58.440;15.470;2023-05-20T05:45:09;102494.53;;;8.28;100.00
13420;BME280;6781;58.440;15.470;2023-05-20T05:47:36;102545.09;;;8.59;100.00
13420;BME280;6781;58.440;15.470;2023-05-20T05:50:03;102506.34;;;8.35;100.00
13420;BME280;6781;58.440;15.470;2023-05-20T05:52:30;102471.19;;;8.08;100.00
13420;BME280;6781;58.440;15.470;2023-05-20T05:54:59;102502.50;;;8.45;100.00
13420;BME280;6781;58.440;15.470;2023-05-20T05:57:26;102651.06;;;9.48;100.00
13420;BME280;6781;58.440;15.470;2023-05-20T05:59:53;102643.97;;;9.31;100.00
13420;BME280;6781;58.440;15.470;2023-05-20T06:02:21;102655.63;;;9.63;100.00
13420;BME280;6781;58.440;15.470;2023-05-20T06:04:48;102534.75;;;8.79;100.00
13420;BME280;6781;58.440;15.470;2023-05-20T06:07:15;102517.06;;;8.90;100.00
13420;BME280;6781;58.440;15.470;2023-05-20T06:09:45;102566.56;;;9.45;100.00
13420;BME280;6781;58.440;15.470;2023-05-20T06:12:13;102451.31;;;8.54;100.00
13420;BME280;6781;58.440;15.470;2023-05-20T06:14:42;102658.72;;;10.11;100.00
13420;BME280;6781;58.440;15.470;2023-05-20T06:17:08;102394.66;;;8.68;100.00
13420;BME280;6781;58.440;15.470;2023-05-20T06:19:35;102494.75;;;9.28;100.00
13420;BME280;6781;58.440;15.470;2023-05-20T06:22:04;102649.50;;;10.43;100.00
13420;BME280;6781;58.440;15.470;2023-05-20T06:24:33;102556.97;;;10.06;100.00
13420;BME280;6781;58.440;15.470;2023-05-20T06:27:00;102490.72;;;9.81;100.00
13420;BME280;6781;58.440;15.470;2023-05-20T06:29:30;102552.63;;;10.07;100.00
13420;BME280;6781;58.440;15.470;2023-05-20T06:31:58;102428.25;;;9.68;100.00
13420;BME280;6781;58.440;15.470;2023-05-20T06:34:26;102611.50;;;10.80;100.00
13420;BME280;6781;58.440;15.470;2023-05-20T06:36:53;102654.00;;;11.32;100.00
13420;BME280;6781;58.440;15.470;2023-05-20T06:39:20;102605.91;;;11.24;100.00
13420;BME280;6781;58.440;15.470;2023-05-20T06:41:47;102596.38;;;11.24;100.00
13420;BME280;6781;58.440;15.470;2023-05-20T06:44:17;102636.06;;;11.80;100.00
13420;BME280;6781;58.440;15.470;2023-05-20T06:46:46;102567.69;;;11.60;100.00
13420;BME280;6781;58.440;15.470;2023-05-20T06:49:15;102632.63;;;12.12;100.00
13420;BME280;6781;58.440;15.470;2023-05-20T06:51:45;102446.06;;;10.84;100.00
13420;BME280;6781;58.440;15.470;2023-05-20T06:54:15;102644.31;;;12.36;100.00
13420;BME280;6781;58.440;15.470;2023-05-20T06:56:49;102357.06;;;10.64;100.00
13420;BME280;6781;58.440;15.470;2023-05-20T06:59:16;102603.59;;;12.35;100.00
13420;BME280;6781;58.440;15.470;2023-05-20T07:01:46;102507.09;;;11.93;100.00
13420;BME280;6781;58.440;15.470;2023-05-20T07:04:13;102476.22;;;12.02;100.00
13420;BME280;6781;58.440;15.470;2023-05-20T07:06:40;102438.94;;;12.18;100.00
13420;BME280;6781;58.440;15.470;2023-05-20T07:09:10;102408.72;;;12.15;100.00
13420;BME280;6781;58.440;15.470;2023-05-20T07:11:37;102426.22;;;12.43;100.00
13420;BME280;6781;58.440;15.470;2023-05-20T07:14:04;102409.31;;;12.20;100.00
13420;BME280;6781;58.440;15.470;2023-05-20T07:16:33;102484.88;;;13.24;100.00
13420;BME280;6781;58.440;15.470;2023-05-20T07:19:27;102352.75;;;12.68;100.00
13420;BME280;6781;58.440;15.470;2023-05-20T07:21:54;102571.28;;;13.89;100.00
13420;BME280;6781;58.440;15.470;2023-05-20T07:24:35;102327.28;;;13.01;100.00
13420;BME280;6781;58.440;15.470;2023-05-20T07:27:02;102397.91;;;13.54;100.00
13420;BME280;6781;58.440;15.470;2023-05-20T07:29:31;102479.28;;;14.41;100.00
13420;BME280;6781;58.440;15.470;2023-05-20T07:32:01;102534.44;;;14.90;100.00
13420;BME280;6781;58.440;15.470;2023-05-20T07:34:38;102341.97;;;13.45;100.00
13420;BME280;6781;58.440;15.470;2023-05-20T07:37:08;102477.56;;;14.27;100.00
13420;BME280;6781;58.440;15.470;2023-05-20T07:39:37;102395.25;;;14.22;100.00
13420;BME280;6781;58.440;15.470;2023-05-20T07:42:04;102478.81;;;14.88;100.00
13420;BME280;6781;58.440;15.470;2023-05-20T07:44:31;102355.41;;;14.32;100.00
13420;BME280;6781;58.440;15.470;2023-05-20T07:46:58;102550.88;;;16.07;100.00
13420;BME280;6781;58.440;15.470;2023-05-20T07:49:25;102514.66;;;16.01;100.00
13420;BME280;6781;58.440;15.470;2023-05-20T07:51:54;102348.06;;;15.03;100.00
13420;BME280;6781;58.440;15.470;2023-05-20T07:54:23;102471.84;;;15.27;100.00
13420;BME280;6781;58.440;15.470;2023-05-20T07:56:51;102421.03;;;15.06;100.00
13420;BME280;6781;58.440;15.470;2023-05-20T07:59:19;102399.09;;;15.94;100.00
13420;BME280;6781;58.440;15.470;2023-05-20T08:01:47;102494.75;;;16.35;100.00
13420;BME280;6781;58.440;15.470;2023-05-20T08:04:14;102430.59;;;15.92;100.00
13420;BME280;6781;58.440;15.470;2023-05-20T08:06:41;102476.91;;;16.40;100.00
13420;BME280;6781;58.440;15.470;2023-05-20T08:09:10;102467.19;;;16.53;100.00
13420;BME280;6781;58.440;15.470;2023-05-20T08:11:38;102361.50;;;15.95;100.00
13420;BME280;6781;58.440;15.470;2023-05-20T08:14:05;102492.31;;;16.68;100.00
13420;BME280;6781;58.440;15.470;2023-05-20T08:16:32;102334.03;;;15.53;100.00
13420;BME280;6781;58.440;15.470;2023-05-20T08:18:59;102499.53;;;16.88;98.41
13420;BME280;6781;58.440;15.470;2023-05-20T08:21:26;102359.22;;;16.25;94.80
13420;BME280;6781;58.440;15.470;2023-05-20T08:23:53;102444.72;;;16.62;91.40
13420;BME280;6781;58.440;15.470;2023-05-20T08:26:22;102453.78;;;17.93;91.68
13420;BME280;6781;58.440;15.470;2023-05-20T08:28:49;102421.78;;;18.52;87.07
13420;BME280;6781;58.440;15.470;2023-05-20T08:31:16;102435.47;;;18.67;74.68
13420;BME280;6781;58.440;15.470;2023-05-20T08:33:43;102412.94;;;18.32;70.72
13420;BME280;6781;58.440;15.470;2023-05-20T08:36:10;102290.97;;;17.50;70.36
13420;BME280;6781;58.440;15.470;2023-05-20T08:38:37;102256.03;;;17.49;67.86
13420;BME280;6781;58.440;15.470;2023-05-20T08:41:04;102279.16;;;17.55;70.85
13420;BME280;6781;58.440;15.470;2023-05-20T08:43:33;102411.00;;;18.55;69.54
13420;BME280;6781;58.440;15.470;2023-05-20T08:46:01;102426.63;;;18.89;69.58
13420;BME280;6781;58.440;15.470;2023-05-20T08:48:30;102227.13;;;18.44;70.43
13420;BME280;6781;58.440;15.470;2023-05-20T08:50:59;102346.28;;;19.05;59.86
13420;BME280;6781;58.440;15.470;2023-05-20T08:53:28;102283.31;;;18.52;56.35
13420;BME280;6781;58.440;15.470;2023-05-20T08:55:56;102409.75;;;19.31;60.23
13420;BME280;6781;58.440;15.470;2023-05-20T08:58:27;102438.38;;;18.84;66.52
13420;BME280;6781;58.440;15.470;2023-05-20T09:00:56;102352.91;;;19.00;63.96
13420;BME280;6781;58.440;15.470;2023-05-20T09:03:23;102411.28;;;18.94;59.84
13420;BME280;6781;58.440;15.470;2023-05-20T09:05:51;102383.91;;;18.54;62.79
13420;BME280;6781;58.440;15.470;2023-05-20T09:08:19;102385.09;;;18.30;62.66
13420;BME280;6781;58.440;15.470;2023-05-20T09:10:51;102256.84;;;17.93;62.97
13420;BME280;6781;58.440;15.470;2023-05-20T09:13:18;102291.41;;;17.98;59.47
13420;BME280;6781;58.440;15.470;2023-05-20T09:15:45;102219.22;;;17.40;61.26
13420;BME280;6781;58.440;15.470;2023-05-20T09:18:16;102333.31;;;18.20;60.51
13420;BME280;6781;58.440;15.470;2023-05-20T09:20:46;102388.41;;;18.64;59.26
13420;BME280;6781;58.440;15.470;2023-05-20T09:23:13;102404.78;;;18.35;58.86
13420;BME280;6781;58.440;15.470;2023-05-20T09:25:40;102415.19;;;18.99;60.82
13420;BME280;6781;58.440;15.470;2023-05-20T09:28:07;102337.88;;;18.39;63.08
13420;BME280;6781;58.440;15.470;2023-05-20T09:30:34;102415.34;;;19.97;65.04
13420;BME280;6781;58.440;15.470;2023-05-20T09:33:04;102347.31;;;19.43;58.81
13420;BME280;6781;58.440;15.470;2023-05-20T09:35:40;102355.00;;;20.52;59.58
13420;BME280;6781;58.440;15.470;2023-05-20T09:38:08;102227.47;;;19.97;57.74
13420;BME280;6781;58.440;15.470;2023-05-20T09:40:36;102392.16;;;20.68;54.94
13420;BME280;6781;58.440;15.470;2023-05-20T09:43:05;102258.19;;;20.72;51.91
13420;BME280;6781;58.440;15.470;2023-05-20T09:45:33;102247.06;;;20.96;50.87
13420;BME280;6781;58.440;15.470;2023-05-20T09:48:01;102394.09;;;21.86;52.37
13420;BME280;6781;58.440;15.470;2023-05-20T09:50:30;102234.34;;;21.09;52.71
13420;BME280;6781;58.440;15.470;2023-05-20T09:53:02;102325.91;;;21.89;47.85
13420;BME280;6781;58.440;15.470;2023-05-20T09:55:30;102355.22;;;22.65;47.25
13420;BME280;6781;58.440;15.470;2023-05-20T09:58:01;102326.81;;;21.80;41.56
13420;BME280;6781;58.440;15.470;2023-05-20T10:00:29;102286.22;;;21.81;39.50
13420;BME280;6781;58.440;15.470;2023-05-20T10:03:02;102295.72;;;22.35;38.35
13420;BME280;6781;58.440;15.470;2023-05-20T10:05:47;102346.41;;;22.83;39.05
13420;BME280;6781;58.440;15.470;2023-05-20T10:11:21;102094.69;;;21.33;37.52
13420;BME280;6781;58.440;15.470;2023-05-20T10:14:08;102263.84;;;21.93;37.88
13420;BME280;6781;58.440;15.470;2023-05-20T10:16:48;102208.88;;;21.53;38.21
13420;BME280;6781;58.440;15.470;2023-05-20T10:19:26;102146.13;;;21.73;38.61
13420;BME280;6781;58.440;15.470;2023-05-20T10:21:59;102305.31;;;22.70;39.03
13420;BME280;6781;58.440;15.470;2023-05-20T10:24:32;102253.00;;;22.64;41.81
13420;BME280;6781;58.440;15.470;2023-05-20T10:27:02;102318.47;;;23.38;39.34
13420;BME280;6781;58.440;15.470;2023-05-20T10:29:40;102217.63;;;23.24;39.65
13420;BME280;6781;58.440;15.470;2023-05-20T10:32:08;102328.75;;;23.50;38.03
13420;BME280;6781;58.440;15.470;2023-05-20T10:34:49;102322.53;;;24.16;38.97
13420;BME280;6781;58.440;15.470;2023-05-20T10:37:23;102334.06;;;24.47;39.00
13420;BME280;6781;58.440;15.470;2023-05-20T10:40:02;102327.41;;;24.59;39.01
13420;BME280;6781;58.440;15.470;2023-05-20T10:42:29;102266.16;;;24.22;34.77
13420;BME280;6781;58.440;15.470;2023-05-20T10:44:56;102305.78;;;24.79;36.42
13420;BME280;6781;58.440;15.470;2023-05-20T10:47:26;102152.25;;;23.32;35.91
13420;BME280;6781;58.440;15.470;2023-05-20T10:49:56;102234.53;;;23.47;35.75
13420;BME280;6781;58.440;15.470;2023-05-20T10:52:23;102126.59;;;23.09;37.63
13420;BME280;6781;58.440;15.470;2023-05-20T10:54:56;102255.13;;;23.69;36.89
13420;BME280;6781;58.440;15.470;2023-05-20T10:57:25;102104.75;;;22.16;36.43
13420;BME280;6781;58.440;15.470;2023-05-20T10:59:54;102255.78;;;22.47;36.80
13420;BME280;6781;58.440;15.470;2023-05-20T11:02:26;102156.59;;;22.08;35.87
13420;BME280;6781;58.440;15.470;2023-05-20T11:04:55;102164.25;;;21.68;37.45
13420;BME280;6781;58.440;15.470;2023-05-20T11:07:28;102206.16;;;22.06;38.17
13420;BME280;6781;58.440;15.470;2023-05-20T11:13:00;102329.31;;;21.64;39.69
13420;BME280;6781;58.440;15.470;2023-05-20T11:15:27;102182.97;;;20.40;40.92
13420;BME280;6781;58.440;15.470;2023-05-20T11:17:56;102300.41;;;21.62;41.04
13420;BME280;6781;58.440;15.470;2023-05-20T11:20:24;102203.44;;;20.56;39.68
13420;BME280;6781;58.440;15.470;2023-05-20T11:22:56;102082.97;;;20.02;40.70
13420;BME280;6781;58.440;15.470;2023-05-20T11:25:28;102210.47;;;21.28;41.73
13420;BME280;6781;58.440;15.470;2023-05-20T11:27:55;102197.53;;;21.07;41.61
13420;BME280;6781;58.440;15.470;2023-05-20T11:30:24;102215.00;;;21.54;41.99
13420;BME280;6781;58.440;15.470;2023-05-20T11:33:00;102307.53;;;22.49;42.92
13420;BME280;6781;58.440;15.470;2023-05-20T11:35:30;102085.00;;;20.45;43.11
13420;BME280;6781;58.440;15.470;2023-05-20T11:38:01;102065.06;;;20.33;42.72
13420;BME280;6781;58.440;15.470;2023-05-20T11:40:30;102187.44;;;21.21;42.87
13420;BME280;6781;58.440;15.470;2023-05-20T11:43:01;102219.59;;;21.95;43.43
13420;BME280;6781;58.440;15.470;2023-05-20T11:45:40;102129.84;;;21.86;42.56
13420;BME280;6781;58.440;15.470;2023-05-20T11:48:07;102053.00;;;21.71;41.90
13420;BME280;6781;58.440;15.470;2023-05-20T11:50:36;102049.72;;;21.77;40.81
13420;BME280;6781;58.440;15.470;2023-05-20T11:53:06;102185.06;;;22.73;40.88
13420;BME280;6781;58.440;15.470;2023-05-20T11:55:44;102122.19;;;21.49;40.98
13420;BME280;6781;58.440;15.470;2023-05-20T11:58:15;102280.19;;;22.74;42.56
13420;BME280;6781;58.440;15.470;2023-05-20T12:00:44;102270.72;;;22.98;41.77
13420;BME280;6781;58.440;15.470;2023-05-20T12:03:12;102189.66;;;22.13;41.19
13420;BME280;6781;58.440;15.470;2023-05-20T12:05:40;102246.66;;;22.41;41.30
13420;BME280;6781;58.440;15.470;2023-05-20T12:08:08;102116.59;;;21.52;41.68
13420;BME280;6781;58.440;15.470;2023-05-20T12:10:35;102137.09;;;22.10;41.69
13420;BME280;6781;58.440;15.470;2023-05-20T12:13:03;102064.66;;;21.94;40.51
13420;BME280;6781;58.440;15.470;2023-05-20T12:15:33;102080.19;;;22.56;41.18
13420;BME280;6781;58.440;15.470;2023-05-20T12:18:02;102257.22;;;23.50;38.86
13420;BME280;6781;58.440;15.470;2023-05-20T12:20:30;102237.06;;;23.65;38.71
13420;BME280;6781;58.440;15.470;2023-05-20T12:23:01;102116.13;;;22.74;38.58
13420;BME280;6781;58.440;15.470;2023-05-20T12:25:29;102142.97;;;23.53;38.36
13420;BME280;6781;58.440;15.470;2023-05-20T12:27:56;102244.97;;;24.06;38.71
13420;BME280;6781;58.440;15.470;2023-05-20T12:30:25;102255.09;;;24.57;39.17
13420;BME280;6781;58.440;15.470;2023-05-20T12:32:52;102177.25;;;24.65;37.71
13420;BME280;6781;58.440;15.470;2023-05-20T12:35:23;102012.00;;;24.25;37.81
13420;BME280;6781;58.440;15.470;2023-05-20T12:37:51;101990.19;;;24.38;37.88
13420;BME280;6781;58.440;15.470;2023-05-20T12:40:18;102186.69;;;25.97;39.23
13420;BME280;6781;58.440;15.470;2023-05-20T12:42:45;102082.06;;;24.85;38.25
13420;BME280;6781;58.440;15.470;2023-05-20T12:45:12;102102.34;;;24.78;39.46
13420;BME280;6781;58.440;15.470;2023-05-20T12:47:39;101997.63;;;23.42;38.88
13420;BME280;6781;58.440;15.470;2023-05-20T12:50:07;102081.38;;;23.67;39.49
13420;BME280;6781;58.440;15.470;2023-05-20T12:52:37;102109.53;;;23.35;39.22
13420;BME280;6781;58.440;15.470;2023-05-20T12:55:07;102232.34;;;25.02;40.01
13420;BME280;6781;58.440;15.470;2023-05-20T12:57:43;102036.69;;;23.56;37.72
13420;BME280;6781;58.440;15.470;2023-05-20T13:00:15;102144.16;;;24.14;39.49
13420;BME280;6781;58.440;15.470;2023-05-20T13:02:44;102208.91;;;24.36;37.58
13420;BME280;6781;58.440;15.470;2023-05-20T13:05:12;102108.25;;;24.34;37.36